MST,Max TemperatureF,Mean TemperatureF,Min TemperatureF,Max Dew PointF,MeanDew PointF,Min DewpointF,Max Humidity, Mean Humidity, Min Humidity, Max Sea Level PressureIn, Mean Sea Level PressureIn, Min Sea Level PressureIn, Max VisibilityMiles, Mean VisibilityMiles, Min VisibilityMiles, Max Wind SpeedMPH, Mean Wind SpeedMPH, Max Gust SpeedMPH,PrecipitationIn, CloudCover, Events, WindDirDegrees
2013-9-1,88,74,60,62,59,56,90,63,35,30.01,29.93,29.84,10,10,10,17,4,22,0.00,0,,220
2013-9-2,91,77,63,62,57,51,87,57,27,30.00,29.93,29.84,10,10,9,25,6,32,0.02,2,,184
2013-9-3,91,76,61,61,55,50,87,57,26,30.03,29.97,29.91,10,10,10,24,7,30,0.00,1,,177
2013-9-4,94,78,62,58,53,46,78,50,21,30.06,29.97,29.89,10,10,10,21,6,29,0.00,0,,133
2013-9-5,91,75,59,58,50,39,84,51,17,30.04,29.98,29.92,10,10,10,14,5,16,0.00,1,,154
2013-9-6,93,76,59,53,47,39,72,44,16,30.05,29.94,29.85,10,10,10,16,6,20,0.00,0,,126
2013-9-7,87,74,61,62,53,48,67,47,27,30.11,29.93,29.86,10,10,7,22,6,29,0.03,3,Rain,158
2013-9-8,73,69,64,63,61,58,93,77,61,30.09,29.92,29.84,10,10,7,15,6,18,0.21,7,Rain,127
2013-9-9,68,65,61,61,60,57,97,85,73,30.05,29.90,29.80,10,7,1,12,5,14,0.61,8,Rain,18
2013-9-10,78,69,59,60,57,54,97,72,46,30.00,29.87,29.79,10,10,2,26,5,33,0.06,3,Rain,173
2013-9-11,79,68,57,56,54,50,93,66,39,30.01,29.96,29.91,10,10,10,21,5,26,0.00,4,,169
2013-9-12,82,67,52,55,50,39,96,61,25,30.04,29.95,29.86,10,10,10,10,4,16,0.00,0,,278
2013-9-13,84,69,54,54,50,42,89,58,26,29.90,29.82,29.72,10,10,10,16,6,18,0.00,1,,176
2013-9-14,83,71,58,57,53,48,84,59,33,29.83,29.78,29.72,10,10,10,18,6,24,T,1,Rain,157
2013-9-15,86,72,57,54,51,41,86,55,23,29.92,29.87,29.80,10,10,10,10,3,14,0.00,0,,228
2013-9-16,87,72,57,56,52,46,80,54,27,30.00,29.92,29.84,10,10,10,16,5,20,0.00,0,,140
2013-9-17,90,75,60,56,52,47,78,52,25,29.91,29.80,29.71,10,10,10,22,10,28,0.00,1,,150
2013-9-18,89,73,57,56,45,36,73,45,17,29.78,29.74,29.68,10,10,10,25,11,33,0.00,0,,197
2013-9-19,87,70,52,43,40,37,66,42,18,29.90,29.83,29.77,10,10,10,12,4,18,0.00,0,,112
2013-9-20,89,73,56,45,42,38,62,40,17,29.93,29.85,29.78,10,10,10,17,5,22,0.00,1,,212
2013-9-21,88,75,62,53,48,41,60,40,20,29.99,29.79,29.67,10,10,10,23,10,31,0.00,2,,168
2013-9-22,80,65,50,53,38,14,72,41,10,29.80,29.64,29.53,10,10,4,44,18,60,T,1,Rain,208
2013-9-23,77,60,42,33,29,21,58,36,13,30.02,29.94,29.82,10,10,10,12,3,23,0.00,0,,257
2013-9-24,86,64,42,37,32,24,65,38,11,30.11,29.96,29.84,10,10,10,18,6,24,0.00,0,,167
2013-9-25,83,66,48,37,32,27,61,37,13,29.81,29.69,29.60,10,10,10,30,13,41,0.00,0,,173
2013-9-26,80,66,51,43,34,23,54,34,13,29.67,29.62,29.58,10,10,10,41,18,51,0.00,1,,184
2013-9-27,69,56,43,34,22,15,46,30,13,30.08,29.89,29.70,10,10,10,17,7,22,0.00,3,,322
2013-9-28,71,53,34,25,20,13,61,36,11,30.25,30.16,30.08,10,10,10,12,2,18,0.00,0,,187
2013-9-29,82,60,37,33,26,19,54,35,15,30.23,30.09,29.97,10,10,10,15,6,17,0.00,0,,148
2013-9-30,85,64,42,33,29,22,62,36,10,30.04,29.94,29.85,10,10,10,13,6,15,0.00,0,,160